New Orleans, LA (70139)

7:19 PM CDT on July 30, 2015 (GMT -0500)
Warehouse District | | Change Station
CLOSE
Current Station
Personal Weather Station
Location: New Orleans, LA
Elevation: 28 ft
Nearby Weather Stations

Elev 28 ft 29.94 °N, 90.07 °W | Updated 8 seconds ago

Overcast
Overcast
82.0 °F
Feels Like 89 °F
N
3.6
Wind Variable Wind from WNW
Gusts 4.9 mph

Today
High -- | Low -- °F
--% Chance of Precip.
Yesterday
High -- | Low -- °F
Precip. -- in
6:18 AM 7:55 PM
Full, 100% visible
Pressure 29.91 in
Visibility 6.0 miles
Clouds Mostly Cloudy 11000 ft
Heat Index 89 °F
Dew Point 76 °F
Humidity 82%
Rainfall 0.07 in
Snow Depth Not available.
UV 0.0 out of 12
Pollen 1.80 out of 12
Air Quality Not available.
Flu Activity Not available.
METAR KNEW 302353Z AUTO 33012KT 6SM -RA BKN110 27/24 A2993 RMK AO2 RAB05 SLP128 P0003 60003 T02720239 10339 20256 58001 TSNO

More Conditions Fewer Conditions

Pressure 29.91 in
Visibility 6.0 miles
Clouds Mostly Cloudy 11000 ft
Heat Index 89 °F
Dew Point 76 °F
Humidity 82%
Rainfall 0.07 in
Snow Depth Not available.
UV 0.0 out of 12
Pollen 1.80 out of 12
Air Quality Not available.
Flu Activity Not available.
METAR KNEW 302353Z AUTO 33012KT 6SM -RA BKN110 27/24 A2993 RMK AO2 RAB05 SLP128 P0003 60003 T02720239 10339 20256 58001 TSNO

More Conditions Fewer Conditions

10-Day Weather Forecast

×

Almanac

Astronomy

Jul. 30, 2015 Rise Set
Actual Time
Civil Twilight
Nautical Twilight
Astronomical Twilight
Moon
Length of Visible Light
Length of Day
Tomorrow will be .
, % of the Moon is Illuminated

Today's Extremes

State Highs State Lows

Community

WunderPhotos

Upload Photos

1,842,548 photos uploaded!

WunderBlogs® & News

Nearby

Air Quality

  Air Quality AQ Index Pollutant
Not available.

Snow Depth

Station Depth Elevation

Earthquake Activity

City Distance Mag. Time & Date
Minimum magnitude displayed is 2.5.

Coastal Water Temperatures

Place Temperature

Stations

Nearby Weather Stations

Station Location Temp. Windchill Dew Point Humidity Wind Precip. Elev Updated Type